sensor_id;sensor_type;location;lat;lon;timestamp;temperature;humidity
75091;DHT22;63674;48.048;8.306;2023-08-12T00:00:10;14.10;99.90
75091;DHT22;63674;48.048;8.306;2023-08-12T00:02:40;14.10;99.90
75091;DHT22;63674;48.048;8.306;2023-08-12T00:05:10;14.20;99.90
75091;DHT22;63674;48.048;8.306;2023-08-12T00:07:39;14.20;99.90
75091;DHT22;63674;48.048;8.306;2023-08-12T00:10:10;14.20;99.90
75091;DHT22;63674;48.048;8.306;2023-08-12T00:12:41;14.20;99.90
75091;DHT22;63674;48.048;8.306;2023-08-12T00:15:10;14.30;99.90
75091;DHT22;63674;48.048;8.306;2023-08-12T00:17:39;14.20;99.90
75091;DHT22;63674;48.048;8.306;2023-08-12T00:20:09;14.20;99.90
75091;DHT22;63674;48.048;8.306;2023-08-12T00:22:40;14.30;99.90
75091;DHT22;63674;48.048;8.306;2023-08-12T00:25:09;14.20;99.90
75091;DHT22;63674;48.048;8.306;2023-08-12T00:27:39;14.30;99.90
75091;DHT22;63674;48.048;8.306;2023-08-12T00:30:08;14.30;99.90
75091;DHT22;63674;48.048;8.306;2023-08-12T00:32:37;14.40;99.90
75091;DHT22;63674;48.048;8.306;2023-08-12T00:35:08;14.40;99.90
75091;DHT22;63674;48.048;8.306;2023-08-12T00:37:37;14.50;99.90
75091;DHT22;63674;48.048;8.306;2023-08-12T00:40:06;14.50;99.90
75091;DHT22;63674;48.048;8.306;2023-08-12T00:42:36;14.50;99.90
75091;DHT22;63674;48.048;8.306;2023-08-12T00:45:09;14.50;99.90
75091;DHT22;63674;48.048;8.306;2023-08-12T00:47:40;14.50;99.90
75091;DHT22;63674;48.048;8.306;2023-08-12T00:50:11;14.60;99.90
75091;DHT22;63674;48.048;8.306;2023-08-12T00:52:42;14.50;99.90
75091;DHT22;63674;48.048;8.306;2023-08-12T00:55:10;14.40;99.90
75091;DHT22;63674;48.048;8.306;2023-08-12T00:57:39;14.30;99.90
75091;DHT22;63674;48.048;8.306;2023-08-12T01:00:11;14.30;99.90
75091;DHT22;63674;48.048;8.306;2023-08-12T01:02:42;14.30;99.90
75091;DHT22;63674;48.048;8.306;2023-08-12T01:05:15;14.30;99.90
75091;DHT22;63674;48.048;8.306;2023-08-12T01:07:44;14.30;99.90
75091;DHT22;63674;48.048;8.306;2023-08-12T01:10:13;14.40;99.90
75091;DHT22;63674;48.048;8.306;2023-08-12T01:12:49;14.50;99.90
75091;DHT22;63674;48.048;8.306;2023-08-12T01:15:22;14.50;99.90
75091;DHT22;63674;48.048;8.306;2023-08-12T01:17:54;14.50;99.90
75091;DHT22;63674;48.048;8.306;2023-08-12T01:20:25;14.50;99.90
75091;DHT22;63674;48.048;8.306;2023-08-12T01:22:57;14.50;99.90
75091;DHT22;63674;48.048;8.306;2023-08-12T01:25:28;14.50;99.90
75091;DHT22;63674;48.048;8.306;2023-08-12T01:27:57;14.50;99.90
75091;DHT22;63674;48.048;8.306;2023-08-12T01:30:25;14.50;99.90
75091;DHT22;63674;48.048;8.306;2023-08-12T01:33:00;14.50;99.90
75091;DHT22;63674;48.048;8.306;2023-08-12T01:35:36;14.50;99.90
75091;DHT22;63674;48.048;8.306;2023-08-12T01:38:08;14.50;99.90
75091;DHT22;63674;48.048;8.306;2023-08-12T01:40:39;14.40;99.90
75091;DHT22;63674;48.048;8.306;2023-08-12T01:43:08;14.40;99.90
75091;DHT22;63674;48.048;8.306;2023-08-12T01:45:38;14.50;99.90
75091;DHT22;63674;48.048;8.306;2023-08-12T01:48:11;14.50;99.90
75091;DHT22;63674;48.048;8.306;2023-08-12T01:50:40;14.40;99.90
75091;DHT22;63674;48.048;8.306;2023-08-12T01:53:14;14.50;99.90
75091;DHT22;63674;48.048;8.306;2023-08-12T01:55:44;14.50;99.90
75091;DHT22;63674;48.048;8.306;2023-08-12T01:58:13;14.60;99.90
75091;DHT22;63674;48.048;8.306;2023-08-12T02:00:42;14.60;99.90
75091;DHT22;63674;48.048;8.306;2023-08-12T02:03:10;14.60;99.90
75091;DHT22;63674;48.048;8.306;2023-08-12T02:05:39;14.60;99.90
75091;DHT22;63674;48.048;8.306;2023-08-12T02:08:08;14.60;99.90
75091;DHT22;63674;48.048;8.306;2023-08-12T02:10:37;14.70;99.90
75091;DHT22;63674;48.048;8.306;2023-08-12T02:13:07;14.60;99.90
75091;DHT22;63674;48.048;8.306;2023-08-12T02:15:35;14.60;99.90
75091;DHT22;63674;48.048;8.306;2023-08-12T02:18:04;14.50;99.90
75091;DHT22;63674;48.048;8.306;2023-08-12T02:20:33;14.60;99.90
75091;DHT22;63674;48.048;8.306;2023-08-12T02:23:02;14.60;99.90
75091;DHT22;63674;48.048;8.306;2023-08-12T02:25:31;14.70;99.90
75091;DHT22;63674;48.048;8.306;2023-08-12T02:28:00;14.70;99.90
75091;DHT22;63674;48.048;8.306;2023-08-12T02:30:31;14.80;99.90
75091;DHT22;63674;48.048;8.306;2023-08-12T02:33:00;14.80;99.90
75091;DHT22;63674;48.048;8.306;2023-08-12T02:35:29;14.80;99.90
75091;DHT22;63674;48.048;8.306;2023-08-12T02:37:57;14.70;99.90
75091;DHT22;63674;48.048;8.306;2023-08-12T02:40:26;14.80;99.90
75091;DHT22;63674;48.048;8.306;2023-08-12T02:42:54;14.80;99.90
75091;DHT22;63674;48.048;8.306;2023-08-12T02:45:23;14.90;99.90
75091;DHT22;63674;48.048;8.306;2023-08-12T02:47:53;14.90;99.90
75091;DHT22;63674;48.048;8.306;2023-08-12T02:50:22;14.80;99.90
75091;DHT22;63674;48.048;8.306;2023-08-12T02:52:50;14.80;99.90
75091;DHT22;63674;48.048;8.306;2023-08-12T02:55:19;14.80;99.90
75091;DHT22;63674;48.048;8.306;2023-08-12T02:57:48;14.70;99.90
75091;DHT22;63674;48.048;8.306;2023-08-12T03:00:17;14.70;99.90
75091;DHT22;63674;48.048;8.306;2023-08-12T03:02:46;14.70;99.90
75091;DHT22;63674;48.048;8.306;2023-08-12T03:05:17;14.60;99.90
75091;DHT22;63674;48.048;8.306;2023-08-12T03:07:46;14.50;99.90
75091;DHT22;63674;48.048;8.306;2023-08-12T03:10:15;14.30;99.90
75091;DHT22;63674;48.048;8.306;2023-08-12T03:12:43;14.10;99.90
75091;DHT22;63674;48.048;8.306;2023-08-12T03:15:12;14.10;99.90
75091;DHT22;63674;48.048;8.306;2023-08-12T03:17:40;14.10;99.90
75091;DHT22;63674;48.048;8.306;2023-08-12T03:20:09;14.10;99.90
75091;DHT22;63674;48.048;8.306;2023-08-12T03:22:40;14.20;99.90
75091;DHT22;63674;48.048;8.306;2023-08-12T03:25:08;14.20;99.90
75091;DHT22;63674;48.048;8.306;2023-08-12T03:27:37;14.10;99.90
75091;DHT22;63674;48.048;8.306;2023-08-12T03:30:07;14.10;99.90
75091;DHT22;63674;48.048;8.306;2023-08-12T03:32:36;14.10;99.90
75091;DHT22;63674;48.048;8.306;2023-08-12T03:35:05;14.00;99.90
75091;DHT22;63674;48.048;8.306;2023-08-12T03:37:34;14.00;99.90
75091;DHT22;63674;48.048;8.306;2023-08-12T03:40:06;14.00;99.90
75091;DHT22;63674;48.048;8.306;2023-08-12T03:42:36;13.90;99.90
75091;DHT22;63674;48.048;8.306;2023-08-12T03:45:06;13.90;99.90
75091;DHT22;63674;48.048;8.306;2023-08-12T03:47:35;13.90;99.90
75091;DHT22;63674;48.048;8.306;2023-08-12T03:50:05;13.90;99.90
75091;DHT22;63674;48.048;8.306;2023-08-12T03:52:34;13.90;99.90
75091;DHT22;63674;48.048;8.306;2023-08-12T03:55:05;14.00;99.90
75091;DHT22;63674;48.048;8.306;2023-08-12T03:57:35;14.00;99.90
75091;DHT22;63674;48.048;8.306;2023-08-12T04:00:04;14.10;99.90
75091;DHT22;63674;48.048;8.306;2023-08-12T04:02:35;14.10;99.90
75091;DHT22;63674;48.048;8.306;2023-08-12T04:05:04;14.20;99.90
75091;DHT22;63674;48.048;8.306;2023-08-12T04:07:35;14.20;99.90
75091;DHT22;63674;48.048;8.306;2023-08-12T04:10:06;14.30;99.90
75091;DHT22;63674;48.048;8.306;2023-08-12T04:12:36;14.30;99.90
75091;DHT22;63674;48.048;8.306;2023-08-12T04:15:06;14.30;99.90
75091;DHT22;63674;48.048;8.306;2023-08-12T04:17:35;14.30;99.90
75091;DHT22;63674;48.048;8.306;2023-08-12T04:20:05;14.30;99.90
75091;DHT22;63674;48.048;8.306;2023-08-12T04:22:35;14.40;99.90
75091;DHT22;63674;48.048;8.306;2023-08-12T04:25:06;14.30;99.90
75091;DHT22;63674;48.048;8.306;2023-08-12T04:27:35;14.30;99.90
75091;DHT22;63674;48.048;8.306;2023-08-12T04:30:04;14.30;99.90
75091;DHT22;63674;48.048;8.306;2023-08-12T04:32:33;14.20;99.90
75091;DHT22;63674;48.048;8.306;2023-08-12T04:35:03;14.20;99.90
75091;DHT22;63674;48.048;8.306;2023-08-12T04:37:32;14.10;99.90
75091;DHT22;63674;48.048;8.306;2023-08-12T04:40:00;14.10;99.90
75091;DHT22;63674;48.048;8.306;2023-08-12T04:42:32;14.10;99.90
75091;DHT22;63674;48.048;8.306;2023-08-12T04:45:00;14.10;99.90
75091;DHT22;63674;48.048;8.306;2023-08-12T04:47:30;14.10;99.90
75091;DHT22;63674;48.048;8.306;2023-08-12T04:49:59;14.20;99.90
75091;DHT22;63674;48.048;8.306;2023-08-12T04:52:27;14.20;99.90
75091;DHT22;63674;48.048;8.306;2023-08-12T04:54:56;14.30;99.90
75091;DHT22;63674;48.048;8.306;2023-08-12T04:57:25;14.40;99.90
75091;DHT22;63674;48.048;8.306;2023-08-12T04:59:56;14.50;99.90
75091;DHT22;63674;48.048;8.306;2023-08-12T05:02:24;14.60;99.90
75091;DHT22;63674;48.048;8.306;2023-08-12T05:04:53;14.70;99.90
75091;DHT22;63674;48.048;8.306;2023-08-12T05:07:22;14.70;99.90
75091;DHT22;63674;48.048;8.306;2023-08-12T05:09:51;14.70;99.90
75091;DHT22;63674;48.048;8.306;2023-08-12T05:12:19;14.80;99.90
75091;DHT22;63674;48.048;8.306;2023-08-12T05:14:48;14.90;99.90
75091;DHT22;63674;48.048;8.306;2023-08-12T05:17:18;15.00;99.90
75091;DHT22;63674;48.048;8.306;2023-08-12T05:19:46;15.10;99.90
75091;DHT22;63674;48.048;8.306;2023-08-12T05:22:16;15.10;99.90
75091;DHT22;63674;48.048;8.306;2023-08-12T05:24:44;15.10;99.90
75091;DHT22;63674;48.048;8.306;2023-08-12T05:27:13;15.20;99.90
75091;DHT22;63674;48.048;8.306;2023-08-12T05:29:42;15.20;99.90
75091;DHT22;63674;48.048;8.306;2023-08-12T05:32:10;15.30;99.90
75091;DHT22;63674;48.048;8.306;2023-08-12T05:34:41;15.30;99.90
75091;DHT22;63674;48.048;8.306;2023-08-12T05:37:09;15.30;99.90
75091;DHT22;63674;48.048;8.306;2023-08-12T05:39:38;15.50;99.90
75091;DHT22;63674;48.048;8.306;2023-08-12T05:42:06;15.60;99.90
75091;DHT22;63674;48.048;8.306;2023-08-12T05:44:36;15.60;99.90
75091;DHT22;63674;48.048;8.306;2023-08-12T05:47:04;15.70;99.90
75091;DHT22;63674;48.048;8.306;2023-08-12T05:49:33;15.70;99.90
75091;DHT22;63674;48.048;8.306;2023-08-12T05:52:03;15.80;99.90
75091;DHT22;63674;48.048;8.306;2023-08-12T05:54:32;15.80;99.90
75091;DHT22;63674;48.048;8.306;2023-08-12T05:57:01;15.90;99.90
75091;DHT22;63674;48.048;8.306;2023-08-12T05:59:29;15.90;99.90
75091;DHT22;63674;48.048;8.306;2023-08-12T06:01:58;16.00;99.90
75091;DHT22;63674;48.048;8.306;2023-08-12T06:04:27;16.10;99.90
75091;DHT22;63674;48.048;8.306;2023-08-12T06:06:55;16.10;99.90
75091;DHT22;63674;48.048;8.306;2023-08-12T06:09:25;16.10;99.90
75091;DHT22;63674;48.048;8.306;2023-08-12T06:11:54;16.20;99.90
75091;DHT22;63674;48.048;8.306;2023-08-12T06:14:23;16.20;99.90
75091;DHT22;63674;48.048;8.306;2023-08-12T06:16:51;16.30;99.90
75091;DHT22;63674;48.048;8.306;2023-08-12T06:19:24;16.30;99.90
75091;DHT22;63674;48.048;8.306;2023-08-12T06:21:52;16.30;99.90
75091;DHT22;63674;48.048;8.306;2023-08-12T06:24:21;16.40;99.90
75091;DHT22;63674;48.048;8.306;2023-08-12T06:26:51;16.40;99.90
75091;DHT22;63674;48.048;8.306;2023-08-12T06:29:19;16.60;99.90
75091;DHT22;63674;48.048;8.306;2023-08-12T06:31:48;16.70;99.90
75091;DHT22;63674;48.048;8.306;2023-08-12T06:34:17;16.80;99.90
75091;DHT22;63674;48.048;8.306;2023-08-12T06:36:45;16.80;99.90
75091;DHT22;63674;48.048;8.306;2023-08-12T06:39:14;16.90;99.90
75091;DHT22;63674;48.048;8.306;2023-08-12T06:41:42;16.90;99.90
75091;DHT22;63674;48.048;8.306;2023-08-12T06:44:12;17.10;99.90
75091;DHT22;63674;48.048;8.306;2023-08-12T06:46:41;17.20;99.90
75091;DHT22;63674;48.048;8.306;2023-08-12T06:49:10;17.40;99.90
75091;DHT22;63674;48.048;8.306;2023-08-12T06:51:38;17.50;99.90
75091;DHT22;63674;48.048;8.306;2023-08-12T06:54:07;17.60;99.90
75091;DHT22;63674;48.048;8.306;2023-08-12T06:56:36;17.70;99.90
75091;DHT22;63674;48.048;8.306;2023-08-12T06:59:04;17.70;99.90
75091;DHT22;63674;48.048;8.306;2023-08-12T07:01:34;17.70;99.90
75091;DHT22;63674;48.048;8.306;2023-08-12T07:04:03;17.70;99.90
75091;DHT22;63674;48.048;8.306;2023-08-12T07:06:32;17.60;99.90
75091;DHT22;63674;48.048;8.306;2023-08-12T07:09:01;17.70;99.90
75091;DHT22;63674;48.048;8.306;2023-08-12T07:11:30;17.80;99.90
75091;DHT22;63674;48.048;8.306;2023-08-12T07:14:00;17.80;99.90
75091;DHT22;63674;48.048;8.306;2023-08-12T07:16:29;17.90;99.90
75091;DHT22;63674;48.048;8.306;2023-08-12T07:18:59;17.90;99.90
75091;DHT22;63674;48.048;8.306;2023-08-12T07:21:28;17.90;99.90
75091;DHT22;63674;48.048;8.306;2023-08-12T07:23:56;18.00;99.90
75091;DHT22;63674;48.048;8.306;2023-08-12T07:26:30;18.10;99.90
75091;DHT22;63674;48.048;8.306;2023-08-12T07:28:59;18.10;99.90
75091;DHT22;63674;48.048;8.306;2023-08-12T07:31:27;18.20;99.90
75091;DHT22;63674;48.048;8.306;2023-08-12T07:33:56;18.30;99.90
75091;DHT22;63674;48.048;8.306;2023-08-12T07:36:26;18.50;99.90
75091;DHT22;63674;48.048;8.306;2023-08-12T07:38:55;18.60;99.90
75091;DHT22;63674;48.048;8.306;2023-08-12T07:41:24;18.70;99.90
75091;DHT22;63674;48.048;8.306;2023-08-12T07:43:55;18.80;99.90
75091;DHT22;63674;48.048;8.306;2023-08-12T07:46:23;18.90;99.90
75091;DHT22;63674;48.048;8.306;2023-08-12T07:48:52;19.00;99.90
75091;DHT22;63674;48.048;8.306;2023-08-12T07:51:22;19.20;99.90
75091;DHT22;63674;48.048;8.306;2023-08-12T07:53:51;19.30;99.90
75091;DHT22;63674;48.048;8.306;2023-08-12T07:56:19;19.40;99.90
75091;DHT22;63674;48.048;8.306;2023-08-12T07:58:48;19.50;99.90
75091;DHT22;63674;48.048;8.306;2023-08-12T08:01:16;19.70;99.90
75091;DHT22;63674;48.048;8.306;2023-08-12T08:03:45;20.10;99.90
75091;DHT22;63674;48.048;8.306;2023-08-12T08:06:14;20.60;99.90
75091;DHT22;63674;48.048;8.306;2023-08-12T08:08:44;20.80;99.90
75091;DHT22;63674;48.048;8.306;2023-08-12T08:11:13;20.80;99.90
75091;DHT22;63674;48.048;8.306;2023-08-12T08:13:41;20.90;99.90
75091;DHT22;63674;48.048;8.306;2023-08-12T08:16:10;21.00;99.90
75091;DHT22;63674;48.048;8.306;2023-08-12T08:18:39;21.00;99.90
75091;DHT22;63674;48.048;8.306;2023-08-12T08:21:08;21.10;99.90
75091;DHT22;63674;48.048;8.306;2023-08-12T08:23:37;21.10;99.90
75091;DHT22;63674;48.048;8.306;2023-08-12T08:26:07;21.20;99.90
75091;DHT22;63674;48.048;8.306;2023-08-12T08:28:37;21.20;99.90
75091;DHT22;63674;48.048;8.306;2023-08-12T08:31:06;21.20;99.90
75091;DHT22;63674;48.048;8.306;2023-08-12T08:33:36;21.20;99.90
75091;DHT22;63674;48.048;8.306;2023-08-12T08:36:04;21.20;99.90
75091;DHT22;63674;48.048;8.306;2023-08-12T08:38:33;21.10;99.90
75091;DHT22;63674;48.048;8.306;2023-08-12T08:41:04;21.00;99.90
75091;DHT22;63674;48.048;8.306;2023-08-12T08:43:35;21.00;99.90
75091;DHT22;63674;48.048;8.306;2023-08-12T08:46:06;20.80;99.90
75091;DHT22;63674;48.048;8.306;2023-08-12T08:48:35;20.60;99.90
75091;DHT22;63674;48.048;8.306;2023-08-12T08:51:05;20.50;99.90
75091;DHT22;63674;48.048;8.306;2023-08-12T08:53:36;20.40;99.90
75091;DHT22;63674;48.048;8.306;2023-08-12T08:56:08;20.30;99.90
75091;DHT22;63674;48.048;8.306;2023-08-12T08:58:42;20.20;99.90
75091;DHT22;63674;48.048;8.306;2023-08-12T09:01:11;20.00;99.90
75091;DHT22;63674;48.048;8.306;2023-08-12T09:03:40;19.90;99.90
75091;DHT22;63674;48.048;8.306;2023-08-12T09:06:09;19.80;99.90
75091;DHT22;63674;48.048;8.306;2023-08-12T09:08:41;19.60;99.90
75091;DHT22;63674;48.048;8.306;2023-08-12T09:11:17;19.50;99.90
75091;DHT22;63674;48.048;8.306;2023-08-12T09:13:47;19.50;99.90
75091;DHT22;63674;48.048;8.306;2023-08-12T09:16:16;19.60;99.90
75091;DHT22;63674;48.048;8.306;2023-08-12T09:18:45;19.60;99.90
75091;DHT22;63674;48.048;8.306;2023-08-12T09:21:15;19.60;99.90
75091;DHT22;63674;48.048;8.306;2023-08-12T09:23:44;19.70;99.90
75091;DHT22;63674;48.048;8.306;2023-08-12T09:26:18;20.00;99.90
75091;DHT22;63674;48.048;8.306;2023-08-12T09:28:48;20.10;99.90
75091;DHT22;63674;48.048;8.306;2023-08-12T09:31:24;20.20;99.90
75091;DHT22;63674;48.048;8.306;2023-08-12T09:33:58;20.30;99.90
75091;DHT22;63674;48.048;8.306;2023-08-12T09:36:28;20.40;99.90
75091;DHT22;63674;48.048;8.306;2023-08-12T09:38:58;20.50;99.90
75091;DHT22;63674;48.048;8.306;2023-08-12T09:41:28;20.50;99.90
75091;DHT22;63674;48.048;8.306;2023-08-12T09:43:58;20.50;99.90
75091;DHT22;63674;48.048;8.306;2023-08-12T09:46:27;20.50;99.90
75091;DHT22;63674;48.048;8.306;2023-08-12T09:48:56;20.40;99.90
75091;DHT22;63674;48.048;8.306;2023-08-12T09:51:24;20.50;99.90
75091;DHT22;63674;48.048;8.306;2023-08-12T09:53:54;20.60;99.90
75091;DHT22;63674;48.048;8.306;2023-08-12T09:56:23;20.80;99.90
75091;DHT22;63674;48.048;8.306;2023-08-12T09:58:56;20.70;99.90
75091;DHT22;63674;48.048;8.306;2023-08-12T10:01:25;20.60;99.90
75091;DHT22;63674;48.048;8.306;2023-08-12T10:03:54;20.50;99.90
75091;DHT22;63674;48.048;8.306;2023-08-12T10:06:24;20.40;99.90
75091;DHT22;63674;48.048;8.306;2023-08-12T10:08:53;20.40;99.90
75091;DHT22;63674;48.048;8.306;2023-08-12T10:11:22;20.30;99.90
75091;DHT22;63674;48.048;8.306;2023-08-12T10:13:52;20.30;99.90
75091;DHT22;63674;48.048;8.306;2023-08-12T10:16:21;20.20;99.90
75091;DHT22;63674;48.048;8.306;2023-08-12T10:18:50;20.50;99.90
75091;DHT22;63674;48.048;8.306;2023-08-12T10:21:21;20.80;99.90
75091;DHT22;63674;48.048;8.306;2023-08-12T10:23:51;21.20;99.90
75091;DHT22;63674;48.048;8.306;2023-08-12T10:26:22;21.30;99.90
75091;DHT22;63674;48.048;8.306;2023-08-12T10:28:54;21.50;99.90
75091;DHT22;63674;48.048;8.306;2023-08-12T10:31:24;21.60;99.90
75091;DHT22;63674;48.048;8.306;2023-08-12T10:33:57;21.60;99.90
75091;DHT22;63674;48.048;8.306;2023-08-12T10:36:26;21.50;99.90
75091;DHT22;63674;48.048;8.306;2023-08-12T10:38:56;21.40;99.90
75091;DHT22;63674;48.048;8.306;2023-08-12T10:41:25;21.50;99.90
75091;DHT22;63674;48.048;8.306;2023-08-12T10:43:59;21.40;99.90
75091;DHT22;63674;48.048;8.306;2023-08-12T10:46:32;21.40;99.90
75091;DHT22;63674;48.048;8.306;2023-08-12T10:49:06;21.50;99.90
75091;DHT22;63674;48.048;8.306;2023-08-12T10:51:46;21.60;99.90
75091;DHT22;63674;48.048;8.306;2023-08-12T10:54:21;21.80;99.90
75091;DHT22;63674;48.048;8.306;2023-08-12T10:57:11;22.00;99.90
75091;DHT22;63674;48.048;8.306;2023-08-12T10:59:54;22.10;99.90
75091;DHT22;63674;48.048;8.306;2023-08-12T11:02:29;22.10;99.90
75091;DHT22;63674;48.048;8.306;2023-08-12T11:05:02;22.10;99.90
75091;DHT22;63674;48.048;8.306;2023-08-12T11:07:34;22.20;99.90
75091;DHT22;63674;48.048;8.306;2023-08-12T11:10:11;22.30;99.90
75091;DHT22;63674;48.048;8.306;2023-08-12T11:12:42;22.60;99.90
75091;DHT22;63674;48.048;8.306;2023-08-12T11:15:18;23.00;99.90
75091;DHT22;63674;48.048;8.306;2023-08-12T11:17:47;23.30;99.90
75091;DHT22;63674;48.048;8.306;2023-08-12T11:20:16;23.60;99.90
75091;DHT22;63674;48.048;8.306;2023-08-12T11:22:47;23.80;99.90
75091;DHT22;63674;48.048;8.306;2023-08-12T11:25:15;24.10;99.90
75091;DHT22;63674;48.048;8.306;2023-08-12T11:27:47;24.10;99.90
75091;DHT22;63674;48.048;8.306;2023-08-12T11:30:19;24.20;99.90
75091;DHT22;63674;48.048;8.306;2023-08-12T11:32:50;24.20;99.90
75091;DHT22;63674;48.048;8.306;2023-08-12T11:35:21;24.30;99.90
75091;DHT22;63674;48.048;8.306;2023-08-12T11:37:52;24.40;99.90
75091;DHT22;63674;48.048;8.306;2023-08-12T11:40:24;24.40;99.90
75091;DHT22;63674;48.048;8.306;2023-08-12T11:42:54;24.60;99.90
75091;DHT22;63674;48.048;8.306;2023-08-12T11:45:25;24.40;99.90
75091;DHT22;63674;48.048;8.306;2023-08-12T11:47:54;24.10;99.90
75091;DHT22;63674;48.048;8.306;2023-08-12T11:50:26;23.80;99.90
75091;DHT22;63674;48.048;8.306;2023-08-12T11:52:56;23.60;99.90
75091;DHT22;63674;48.048;8.306;2023-08-12T11:55:25;23.40;99.90
75091;DHT22;63674;48.048;8.306;2023-08-12T11:57:54;23.20;99.90
75091;DHT22;63674;48.048;8.306;2023-08-12T12:00:25;22.60;99.90
75091;DHT22;63674;48.048;8.306;2023-08-12T12:02:55;21.60;99.90
75091;DHT22;63674;48.048;8.306;2023-08-12T12:05:27;21.00;99.90
75091;DHT22;63674;48.048;8.306;2023-08-12T12:07:58;20.60;99.90
75091;DHT22;63674;48.048;8.306;2023-08-12T12:10:28;20.20;99.90
75091;DHT22;63674;48.048;8.306;2023-08-12T12:13:03;20.10;99.90
75091;DHT22;63674;48.048;8.306;2023-08-12T12:15:38;20.10;99.90
75091;DHT22;63674;48.048;8.306;2023-08-12T12:18:10;20.20;99.90
75091;DHT22;63674;48.048;8.306;2023-08-12T12:20:53;20.30;99.90
75091;DHT22;63674;48.048;8.306;2023-08-12T12:23:27;20.50;99.90
75091;DHT22;63674;48.048;8.306;2023-08-12T12:26:00;20.60;99.90
75091;DHT22;63674;48.048;8.306;2023-08-12T12:28:29;20.90;99.90
75091;DHT22;63674;48.048;8.306;2023-08-12T12:30:59;21.20;99.90
75091;DHT22;63674;48.048;8.306;2023-08-12T12:33:28;21.50;99.90
75091;DHT22;63674;48.048;8.306;2023-08-12T12:35:56;21.70;99.90
75091;DHT22;63674;48.048;8.306;2023-08-12T12:38:29;22.10;99.90
75091;DHT22;63674;48.048;8.306;2023-08-12T12:40:57;22.20;99.90
75091;DHT22;63674;48.048;8.306;2023-08-12T12:43:26;22.60;99.90
75091;DHT22;63674;48.048;8.306;2023-08-12T12:45:54;22.90;99.90
75091;DHT22;63674;48.048;8.306;2023-08-12T12:48:24;23.00;99.90
75091;DHT22;63674;48.048;8.306;2023-08-12T12:50:56;23.00;99.90
75091;DHT22;63674;48.048;8.306;2023-08-12T12:53:25;23.20;99.90
75091;DHT22;63674;48.048;8.306;2023-08-12T12:55:53;23.20;99.90
75091;DHT22;63674;48.048;8.306;2023-08-12T12:58:23;23.20;99.90
75091;DHT22;63674;48.048;8.306;2023-08-12T13:00:52;23.40;99.90
75091;DHT22;63674;48.048;8.306;2023-08-12T13:03:20;23.80;99.90
75091;DHT22;63674;48.048;8.306;2023-08-12T13:05:51;23.90;99.90
75091;DHT22;63674;48.048;8.306;2023-08-12T13:08:20;24.00;99.90
75091;DHT22;63674;48.048;8.306;2023-08-12T13:10:49;23.90;99.90
75091;DHT22;63674;48.048;8.306;2023-08-12T13:13:18;24.00;99.90
75091;DHT22;63674;48.048;8.306;2023-08-12T13:15:47;24.10;99.90
75091;DHT22;63674;48.048;8.306;2023-08-12T13:18:15;24.40;99.90
75091;DHT22;63674;48.048;8.306;2023-08-12T13:20:44;25.00;99.90
75091;DHT22;63674;48.048;8.306;2023-08-12T13:23:14;24.70;99.90
75091;DHT22;63674;48.048;8.306;2023-08-12T13:25:43;24.60;99.90
75091;DHT22;63674;48.048;8.306;2023-08-12T13:28:12;24.80;99.90
75091;DHT22;63674;48.048;8.306;2023-08-12T13:30:40;24.80;99.90
75091;DHT22;63674;48.048;8.306;2023-08-12T13:33:09;24.70;99.90
75091;DHT22;63674;48.048;8.306;2023-08-12T13:35:38;24.90;99.90
75091;DHT22;63674;48.048;8.306;2023-08-12T13:38:06;24.80;99.90
75091;DHT22;63674;48.048;8.306;2023-08-12T13:40:36;24.80;99.90
75091;DHT22;63674;48.048;8.306;2023-08-12T13:43:05;24.80;99.90
75091;DHT22;63674;48.048;8.306;2023-08-12T13:45:34;24.80;99.90
75091;DHT22;63674;48.048;8.306;2023-08-12T13:48:03;24.70;99.90
75091;DHT22;63674;48.048;8.306;2023-08-12T13:50:33;24.50;99.90
75091;DHT22;63674;48.048;8.306;2023-08-12T13:53:01;24.30;99.90
75091;DHT22;63674;48.048;8.306;2023-08-12T13:55:32;24.40;99.90
75091;DHT22;63674;48.048;8.306;2023-08-12T13:58:02;24.70;99.90
75091;DHT22;63674;48.048;8.306;2023-08-12T14:00:31;25.00;99.90
75091;DHT22;63674;48.048;8.306;2023-08-12T14:03:00;24.90;99.90
75091;DHT22;63674;48.048;8.306;2023-08-12T14:05:29;24.90;99.90
75091;DHT22;63674;48.048;8.306;2023-08-12T14:07:58;24.90;99.90
75091;DHT22;63674;48.048;8.306;2023-08-12T14:10:27;25.10;99.90
75091;DHT22;63674;48.048;8.306;2023-08-12T14:12:55;25.00;99.90
75091;DHT22;63674;48.048;8.306;2023-08-12T14:15:25;25.20;99.90
75091;DHT22;63674;48.048;8.306;2023-08-12T14:17:54;25.30;99.90
75091;DHT22;63674;48.048;8.306;2023-08-12T14:20:23;25.30;99.90
75091;DHT22;63674;48.048;8.306;2023-08-12T14:22:52;25.30;99.90
75091;DHT22;63674;48.048;8.306;2023-08-12T14:25:21;25.20;99.90
75091;DHT22;63674;48.048;8.306;2023-08-12T14:27:49;24.90;99.90
75091;DHT22;63674;48.048;8.306;2023-08-12T14:30:18;24.90;99.90
75091;DHT22;63674;48.048;8.306;2023-08-12T14:32:49;25.00;99.90
75091;DHT22;63674;48.048;8.306;2023-08-12T14:35:18;25.10;99.90
75091;DHT22;63674;48.048;8.306;2023-08-12T14:37:47;25.10;99.90
75091;DHT22;63674;48.048;8.306;2023-08-12T14:40:16;25.10;99.90
75091;DHT22;63674;48.048;8.306;2023-08-12T14:42:44;24.90;99.90
75091;DHT22;63674;48.048;8.306;2023-08-12T14:45:13;24.70;99.90
75091;DHT22;63674;48.048;8.306;2023-08-12T14:47:42;24.50;99.90
75091;DHT22;63674;48.048;8.306;2023-08-12T14:50:12;24.30;99.90
75091;DHT22;63674;48.048;8.306;2023-08-12T14:52:40;24.30;99.90
75091;DHT22;63674;48.048;8.306;2023-08-12T14:55:09;24.40;99.90
75091;DHT22;63674;48.048;8.306;2023-08-12T14:57:38;24.60;99.90
75091;DHT22;63674;48.048;8.306;2023-08-12T15:00:08;24.80;99.90
75091;DHT22;63674;48.048;8.306;2023-08-12T15:02:38;24.80;99.90
75091;DHT22;63674;48.048;8.306;2023-08-12T15:05:07;24.90;99.90
75091;DHT22;63674;48.048;8.306;2023-08-12T15:07:37;24.90;99.90
75091;DHT22;63674;48.048;8.306;2023-08-12T15:10:07;24.80;99.90
75091;DHT22;63674;48.048;8.306;2023-08-12T15:12:36;24.80;99.90
75091;DHT22;63674;48.048;8.306;2023-08-12T15:15:05;24.80;99.90
75091;DHT22;63674;48.048;8.306;2023-08-12T15:17:34;24.70;99.90
75091;DHT22;63674;48.048;8.306;2023-08-12T15:20:03;24.70;99.90
75091;DHT22;63674;48.048;8.306;2023-08-12T15:22:33;24.50;99.90
75091;DHT22;63674;48.048;8.306;2023-08-12T15:25:04;24.40;99.90
75091;DHT22;63674;48.048;8.306;2023-08-12T15:27:33;24.30;99.90
75091;DHT22;63674;48.048;8.306;2023-08-12T15:30:02;24.30;99.90
75091;DHT22;63674;48.048;8.306;2023-08-12T15:32:31;24.20;99.90
75091;DHT22;63674;48.048;8.306;2023-08-12T15:35:00;24.10;99.90
75091;DHT22;63674;48.048;8.306;2023-08-12T15:37:29;24.10;99.90
75091;DHT22;63674;48.048;8.306;2023-08-12T15:39:57;24.00;99.90
75091;DHT22;63674;48.048;8.306;2023-08-12T15:42:27;23.90;99.90
75091;DHT22;63674;48.048;8.306;2023-08-12T15:44:56;23.90;99.90